sensor_id;sensor_type;location;lat;lon;timestamp;P1;durP1;ratioP1;P2;durP2;ratioP2
11344;SDS011;5727;42.600;23.028;2023-07-09T00:01:53;11.67;;;6.13;;
11344;SDS011;5727;42.600;23.028;2023-07-09T00:04:20;9.57;;;5.53;;
11344;SDS011;5727;42.600;23.028;2023-07-09T00:06:47;5.63;;;4.70;;
11344;SDS011;5727;42.600;23.028;2023-07-09T00:09:14;6.67;;;4.20;;
11344;SDS011;5727;42.600;23.028;2023-07-09T00:11:43;8.13;;;4.77;;
11344;SDS011;5727;42.600;23.028;2023-07-09T00:14:10;10.17;;;4.87;;
11344;SDS011;5727;42.600;23.028;2023-07-09T00:16:40;6.50;;;4.20;;
11344;SDS011;5727;42.600;23.028;2023-07-09T00:19:09;13.13;;;5.20;;
11344;SDS011;5727;42.600;23.028;2023-07-09T00:21:39;15.73;;;5.80;;
11344;SDS011;5727;42.600;23.028;2023-07-09T00:24:05;7.03;;;4.60;;
11344;SDS011;5727;42.600;23.028;2023-07-09T00:26:35;8.77;;;4.90;;
11344;SDS011;5727;42.600;23.028;2023-07-09T00:29:03;7.40;;;5.20;;
11344;SDS011;5727;42.600;23.028;2023-07-09T00:31:30;5.80;;;5.07;;
11344;SDS011;5727;42.600;23.028;2023-07-09T00:33:59;8.53;;;4.60;;
11344;SDS011;5727;42.600;23.028;2023-07-09T00:36:26;6.50;;;4.87;;
11344;SDS011;5727;42.600;23.028;2023-07-09T00:38:55;7.77;;;5.20;;
11344;SDS011;5727;42.600;23.028;2023-07-09T00:41:24;7.47;;;4.80;;
11344;SDS011;5727;42.600;23.028;2023-07-09T00:43:53;11.57;;;5.67;;
11344;SDS011;5727;42.600;23.028;2023-07-09T00:49:31;11.47;;;5.20;;
11344;SDS011;5727;42.600;23.028;2023-07-09T00:52:00;12.87;;;6.33;;
11344;SDS011;5727;42.600;23.028;2023-07-09T00:54:30;8.57;;;5.30;;
11344;SDS011;5727;42.600;23.028;2023-07-09T00:57:03;13.40;;;5.73;;
11344;SDS011;5727;42.600;23.028;2023-07-09T00:59:35;5.40;;;4.50;;
11344;SDS011;5727;42.600;23.028;2023-07-09T01:02:02;6.97;;;4.90;;
11344;SDS011;5727;42.600;23.028;2023-07-09T01:04:31;8.17;;;5.40;;
11344;SDS011;5727;42.600;23.028;2023-07-09T01:06:58;9.37;;;4.70;;
11344;SDS011;5727;42.600;23.028;2023-07-09T01:09:25;10.13;;;5.57;;
11344;SDS011;5727;42.600;23.028;2023-07-09T01:11:52;10.90;;;5.20;;
11344;SDS011;5727;42.600;23.028;2023-07-09T01:14:26;10.37;;;5.60;;
11344;SDS011;5727;42.600;23.028;2023-07-09T01:16:54;17.23;;;7.90;;
11344;SDS011;5727;42.600;23.028;2023-07-09T01:19:25;15.20;;;8.00;;
11344;SDS011;5727;42.600;23.028;2023-07-09T01:21:55;17.63;;;6.33;;
11344;SDS011;5727;42.600;23.028;2023-07-09T01:27:18;9.97;;;6.33;;
11344;SDS011;5727;42.600;23.028;2023-07-09T01:29:46;11.37;;;7.30;;
11344;SDS011;5727;42.600;23.028;2023-07-09T01:32:14;15.33;;;6.70;;
11344;SDS011;5727;42.600;23.028;2023-07-09T01:34:43;12.53;;;6.80;;
11344;SDS011;5727;42.600;23.028;2023-07-09T01:37:13;13.07;;;7.10;;
11344;SDS011;5727;42.600;23.028;2023-07-09T01:39:41;17.37;;;8.30;;
11344;SDS011;5727;42.600;23.028;2023-07-09T01:42:08;15.60;;;9.23;;
11344;SDS011;5727;42.600;23.028;2023-07-09T01:44:35;17.57;;;9.23;;
11344;SDS011;5727;42.600;23.028;2023-07-09T01:47:03;15.30;;;8.83;;
11344;SDS011;5727;42.600;23.028;2023-07-09T01:49:31;13.57;;;7.53;;
11344;SDS011;5727;42.600;23.028;2023-07-09T01:51:58;15.93;;;8.37;;
11344;SDS011;5727;42.600;23.028;2023-07-09T01:54:28;18.10;;;8.57;;
11344;SDS011;5727;42.600;23.028;2023-07-09T01:59:39;13.47;;;7.63;;
11344;SDS011;5727;42.600;23.028;2023-07-09T02:02:07;13.67;;;6.63;;
11344;SDS011;5727;42.600;23.028;2023-07-09T02:04:34;12.43;;;7.20;;
11344;SDS011;5727;42.600;23.028;2023-07-09T02:07:01;10.97;;;7.30;;
11344;SDS011;5727;42.600;23.028;2023-07-09T02:09:29;13.53;;;7.33;;
11344;SDS011;5727;42.600;23.028;2023-07-09T02:11:55;11.83;;;6.67;;
11344;SDS011;5727;42.600;23.028;2023-07-09T02:14:22;15.00;;;6.47;;
11344;SDS011;5727;42.600;23.028;2023-07-09T02:16:49;16.50;;;6.43;;
11344;SDS011;5727;42.600;23.028;2023-07-09T02:19:17;13.37;;;6.90;;
11344;SDS011;5727;42.600;23.028;2023-07-09T02:21:44;11.30;;;7.10;;
11344;SDS011;5727;42.600;23.028;2023-07-09T02:24:10;12.13;;;6.73;;
11344;SDS011;5727;42.600;23.028;2023-07-09T02:26:38;13.13;;;7.27;;
11344;SDS011;5727;42.600;23.028;2023-07-09T02:29:05;17.67;;;7.00;;
11344;SDS011;5727;42.600;23.028;2023-07-09T02:31:32;12.13;;;6.70;;
11344;SDS011;5727;42.600;23.028;2023-07-09T02:33:59;15.80;;;6.90;;
11344;SDS011;5727;42.600;23.028;2023-07-09T02:36:28;13.07;;;7.10;;
11344;SDS011;5727;42.600;23.028;2023-07-09T02:38:55;11.80;;;7.07;;
11344;SDS011;5727;42.600;23.028;2023-07-09T02:41:21;11.43;;;7.43;;
11344;SDS011;5727;42.600;23.028;2023-07-09T02:43:49;13.07;;;7.30;;
11344;SDS011;5727;42.600;23.028;2023-07-09T02:46:16;14.87;;;7.10;;
11344;SDS011;5727;42.600;23.028;2023-07-09T02:48:43;15.30;;;7.60;;
11344;SDS011;5727;42.600;23.028;2023-07-09T02:51:09;14.60;;;8.00;;
11344;SDS011;5727;42.600;23.028;2023-07-09T02:53:36;11.53;;;7.33;;
11344;SDS011;5727;42.600;23.028;2023-07-09T02:56:03;17.30;;;7.90;;
11344;SDS011;5727;42.600;23.028;2023-07-09T02:58:30;13.53;;;7.70;;
11344;SDS011;5727;42.600;23.028;2023-07-09T03:00:58;10.53;;;7.57;;
11344;SDS011;5727;42.600;23.028;2023-07-09T03:03:25;17.53;;;8.20;;
11344;SDS011;5727;42.600;23.028;2023-07-09T03:05:53;13.97;;;8.03;;
11344;SDS011;5727;42.600;23.028;2023-07-09T03:08:20;16.70;;;7.73;;
11344;SDS011;5727;42.600;23.028;2023-07-09T03:10:47;12.70;;;7.13;;
11344;SDS011;5727;42.600;23.028;2023-07-09T03:13:14;12.40;;;6.90;;
11344;SDS011;5727;42.600;23.028;2023-07-09T03:15:40;12.17;;;7.50;;
11344;SDS011;5727;42.600;23.028;2023-07-09T03:18:08;12.20;;;7.23;;
11344;SDS011;5727;42.600;23.028;2023-07-09T03:20:35;12.97;;;6.43;;
11344;SDS011;5727;42.600;23.028;2023-07-09T03:23:03;10.70;;;6.83;;
11344;SDS011;5727;42.600;23.028;2023-07-09T03:25:30;11.80;;;6.70;;
11344;SDS011;5727;42.600;23.028;2023-07-09T03:27:57;13.37;;;6.60;;
11344;SDS011;5727;42.600;23.028;2023-07-09T03:30:24;12.37;;;6.40;;
11344;SDS011;5727;42.600;23.028;2023-07-09T03:32:50;10.53;;;5.90;;
11344;SDS011;5727;42.600;23.028;2023-07-09T03:35:19;11.43;;;7.00;;
11344;SDS011;5727;42.600;23.028;2023-07-09T03:37:45;11.77;;;6.83;;
11344;SDS011;5727;42.600;23.028;2023-07-09T03:40:19;9.47;;;6.00;;
11344;SDS011;5727;42.600;23.028;2023-07-09T03:42:47;9.73;;;6.50;;
11344;SDS011;5727;42.600;23.028;2023-07-09T03:45:14;12.83;;;7.60;;
11344;SDS011;5727;42.600;23.028;2023-07-09T03:47:41;12.63;;;7.13;;
11344;SDS011;5727;42.600;23.028;2023-07-09T03:50:08;10.73;;;6.90;;
11344;SDS011;5727;42.600;23.028;2023-07-09T03:52:37;11.10;;;6.57;;
11344;SDS011;5727;42.600;23.028;2023-07-09T03:55:04;11.87;;;6.80;;
11344;SDS011;5727;42.600;23.028;2023-07-09T03:57:32;12.37;;;6.60;;
11344;SDS011;5727;42.600;23.028;2023-07-09T03:59:59;12.83;;;6.53;;
11344;SDS011;5727;42.600;23.028;2023-07-09T04:02:26;11.40;;;7.00;;
11344;SDS011;5727;42.600;23.028;2023-07-09T04:04:53;13.10;;;6.80;;
11344;SDS011;5727;42.600;23.028;2023-07-09T04:07:20;12.10;;;6.67;;
11344;SDS011;5727;42.600;23.028;2023-07-09T04:09:48;10.37;;;6.23;;
11344;SDS011;5727;42.600;23.028;2023-07-09T04:12:15;13.70;;;6.53;;
11344;SDS011;5727;42.600;23.028;2023-07-09T04:14:41;9.20;;;5.53;;
11344;SDS011;5727;42.600;23.028;2023-07-09T04:17:08;9.40;;;5.83;;
11344;SDS011;5727;42.600;23.028;2023-07-09T04:19:35;10.43;;;5.83;;
11344;SDS011;5727;42.600;23.028;2023-07-09T04:22:02;8.87;;;6.13;;
11344;SDS011;5727;42.600;23.028;2023-07-09T04:24:29;8.27;;;5.83;;
11344;SDS011;5727;42.600;23.028;2023-07-09T04:26:58;10.57;;;6.47;;
11344;SDS011;5727;42.600;23.028;2023-07-09T04:29:28;10.33;;;5.90;;
11344;SDS011;5727;42.600;23.028;2023-07-09T04:31:55;9.30;;;6.00;;
11344;SDS011;5727;42.600;23.028;2023-07-09T04:34:21;10.87;;;6.60;;
11344;SDS011;5727;42.600;23.028;2023-07-09T04:36:48;11.23;;;6.57;;
11344;SDS011;5727;42.600;23.028;2023-07-09T04:39:15;10.10;;;5.43;;
11344;SDS011;5727;42.600;23.028;2023-07-09T04:41:42;14.60;;;6.30;;
11344;SDS011;5727;42.600;23.028;2023-07-09T04:44:10;11.23;;;6.03;;
11344;SDS011;5727;42.600;23.028;2023-07-09T04:46:37;9.63;;;5.67;;
11344;SDS011;5727;42.600;23.028;2023-07-09T04:49:03;9.27;;;5.80;;
11344;SDS011;5727;42.600;23.028;2023-07-09T04:51:30;7.83;;;5.60;;
11344;SDS011;5727;42.600;23.028;2023-07-09T04:53:57;10.43;;;6.27;;
11344;SDS011;5727;42.600;23.028;2023-07-09T04:56:24;12.00;;;5.63;;
11344;SDS011;5727;42.600;23.028;2023-07-09T04:58:50;9.23;;;5.70;;
11344;SDS011;5727;42.600;23.028;2023-07-09T05:01:18;10.73;;;5.57;;
11344;SDS011;5727;42.600;23.028;2023-07-09T05:03:45;10.73;;;5.67;;
11344;SDS011;5727;42.600;23.028;2023-07-09T05:06:12;8.73;;;5.80;;
11344;SDS011;5727;42.600;23.028;2023-07-09T05:08:39;9.13;;;5.93;;
11344;SDS011;5727;42.600;23.028;2023-07-09T05:11:08;9.20;;;6.10;;
11344;SDS011;5727;42.600;23.028;2023-07-09T05:13:35;11.77;;;5.30;;
11344;SDS011;5727;42.600;23.028;2023-07-09T05:16:02;12.07;;;6.10;;
11344;SDS011;5727;42.600;23.028;2023-07-09T05:18:30;10.33;;;5.27;;
11344;SDS011;5727;42.600;23.028;2023-07-09T05:20:57;10.33;;;6.37;;
11344;SDS011;5727;42.600;23.028;2023-07-09T05:23:24;7.97;;;5.57;;
11344;SDS011;5727;42.600;23.028;2023-07-09T05:25:55;9.13;;;5.70;;
11344;SDS011;5727;42.600;23.028;2023-07-09T05:28:22;9.73;;;5.70;;
11344;SDS011;5727;42.600;23.028;2023-07-09T05:30:49;9.33;;;5.50;;
11344;SDS011;5727;42.600;23.028;2023-07-09T05:33:16;11.70;;;5.30;;
11344;SDS011;5727;42.600;23.028;2023-07-09T05:35:45;11.17;;;6.13;;
11344;SDS011;5727;42.600;23.028;2023-07-09T05:38:12;9.47;;;5.80;;
11344;SDS011;5727;42.600;23.028;2023-07-09T05:40:39;10.10;;;5.60;;
11344;SDS011;5727;42.600;23.028;2023-07-09T05:43:05;9.80;;;5.33;;
11344;SDS011;5727;42.600;23.028;2023-07-09T05:45:32;9.93;;;5.37;;
11344;SDS011;5727;42.600;23.028;2023-07-09T05:47:59;8.50;;;4.80;;
11344;SDS011;5727;42.600;23.028;2023-07-09T05:50:27;8.93;;;5.40;;
11344;SDS011;5727;42.600;23.028;2023-07-09T05:52:55;9.33;;;5.67;;
11344;SDS011;5727;42.600;23.028;2023-07-09T05:55:22;6.43;;;4.90;;
11344;SDS011;5727;42.600;23.028;2023-07-09T05:57:49;11.40;;;6.03;;
11344;SDS011;5727;42.600;23.028;2023-07-09T06:00:16;10.60;;;5.57;;
11344;SDS011;5727;42.600;23.028;2023-07-09T06:02:43;10.07;;;5.93;;
11344;SDS011;5727;42.600;23.028;2023-07-09T06:05:10;12.43;;;5.37;;
11344;SDS011;5727;42.600;23.028;2023-07-09T06:07:37;10.93;;;5.43;;
11344;SDS011;5727;42.600;23.028;2023-07-09T06:10:06;8.27;;;4.27;;
11344;SDS011;5727;42.600;23.028;2023-07-09T06:12:34;13.23;;;4.90;;
11344;SDS011;5727;42.600;23.028;2023-07-09T06:15:01;10.97;;;4.13;;
11344;SDS011;5727;42.600;23.028;2023-07-09T06:17:28;12.13;;;4.70;;
11344;SDS011;5727;42.600;23.028;2023-07-09T06:19:54;7.43;;;3.53;;
11344;SDS011;5727;42.600;23.028;2023-07-09T06:22:21;9.33;;;3.53;;
11344;SDS011;5727;42.600;23.028;2023-07-09T06:24:48;5.30;;;3.30;;
11344;SDS011;5727;42.600;23.028;2023-07-09T06:27:16;7.03;;;3.67;;
11344;SDS011;5727;42.600;23.028;2023-07-09T06:29:43;8.30;;;3.80;;
11344;SDS011;5727;42.600;23.028;2023-07-09T06:32:10;9.40;;;3.70;;
11344;SDS011;5727;42.600;23.028;2023-07-09T06:34:36;6.83;;;3.93;;
11344;SDS011;5727;42.600;23.028;2023-07-09T06:37:03;6.07;;;3.10;;
11344;SDS011;5727;42.600;23.028;2023-07-09T06:39:31;8.60;;;3.70;;
11344;SDS011;5727;42.600;23.028;2023-07-09T06:41:57;7.50;;;3.93;;
11344;SDS011;5727;42.600;23.028;2023-07-09T06:44:26;11.70;;;4.50;;
11344;SDS011;5727;42.600;23.028;2023-07-09T06:46:53;6.97;;;3.60;;
11344;SDS011;5727;42.600;23.028;2023-07-09T06:49:19;8.50;;;3.60;;
11344;SDS011;5727;42.600;23.028;2023-07-09T06:51:46;7.03;;;3.83;;
11344;SDS011;5727;42.600;23.028;2023-07-09T06:54:13;7.40;;;4.23;;
11344;SDS011;5727;42.600;23.028;2023-07-09T06:56:40;9.57;;;3.70;;
11344;SDS011;5727;42.600;23.028;2023-07-09T06:59:07;8.57;;;3.60;;
11344;SDS011;5727;42.600;23.028;2023-07-09T07:01:36;8.77;;;4.20;;
11344;SDS011;5727;42.600;23.028;2023-07-09T07:04:03;4.43;;;2.90;;
11344;SDS011;5727;42.600;23.028;2023-07-09T07:06:30;8.60;;;3.40;;
11344;SDS011;5727;42.600;23.028;2023-07-09T07:08:57;5.13;;;2.90;;
11344;SDS011;5727;42.600;23.028;2023-07-09T07:11:24;4.70;;;2.73;;
11344;SDS011;5727;42.600;23.028;2023-07-09T07:13:55;4.50;;;1.93;;
11344;SDS011;5727;42.600;23.028;2023-07-09T07:16:22;6.17;;;2.53;;
11344;SDS011;5727;42.600;23.028;2023-07-09T07:18:51;4.07;;;2.40;;
11344;SDS011;5727;42.600;23.028;2023-07-09T07:21:18;3.47;;;2.63;;
11344;SDS011;5727;42.600;23.028;2023-07-09T07:23:44;3.63;;;2.47;;
11344;SDS011;5727;42.600;23.028;2023-07-09T07:26:11;3.80;;;2.80;;
11344;SDS011;5727;42.600;23.028;2023-07-09T07:28:38;7.00;;;2.93;;
11344;SDS011;5727;42.600;23.028;2023-07-09T07:31:05;3.67;;;2.80;;
11344;SDS011;5727;42.600;23.028;2023-07-09T07:33:33;5.90;;;3.10;;
11344;SDS011;5727;42.600;23.028;2023-07-09T07:36:02;8.20;;;2.90;;
11344;SDS011;5727;42.600;23.028;2023-07-09T07:38:30;4.60;;;2.47;;
11344;SDS011;5727;42.600;23.028;2023-07-09T07:40:57;4.90;;;2.80;;
11344;SDS011;5727;42.600;23.028;2023-07-09T07:43:23;5.57;;;2.93;;
11344;SDS011;5727;42.600;23.028;2023-07-09T07:45:50;6.00;;;2.83;;
11344;SDS011;5727;42.600;23.028;2023-07-09T07:48:17;4.57;;;3.23;;
11344;SDS011;5727;42.600;23.028;2023-07-09T07:50:44;6.30;;;3.00;;
11344;SDS011;5727;42.600;23.028;2023-07-09T07:53:14;3.97;;;2.70;;
11344;SDS011;5727;42.600;23.028;2023-07-09T07:55:41;7.00;;;2.67;;
11344;SDS011;5727;42.600;23.028;2023-07-09T07:58:09;5.97;;;2.80;;
11344;SDS011;5727;42.600;23.028;2023-07-09T08:00:37;4.93;;;3.00;;
11344;SDS011;5727;42.600;23.028;2023-07-09T08:03:04;5.33;;;2.43;;
11344;SDS011;5727;42.600;23.028;2023-07-09T08:05:31;5.27;;;2.33;;
11344;SDS011;5727;42.600;23.028;2023-07-09T08:07:58;4.90;;;2.60;;
11344;SDS011;5727;42.600;23.028;2023-07-09T08:10:26;2.57;;;2.20;;
11344;SDS011;5727;42.600;23.028;2023-07-09T08:12:52;4.27;;;2.23;;
11344;SDS011;5727;42.600;23.028;2023-07-09T08:15:21;5.10;;;2.33;;
11344;SDS011;5727;42.600;23.028;2023-07-09T08:17:48;3.90;;;2.23;;
11344;SDS011;5727;42.600;23.028;2023-07-09T08:20:15;3.73;;;1.83;;
11344;SDS011;5727;42.600;23.028;2023-07-09T08:22:42;3.70;;;2.30;;
11344;SDS011;5727;42.600;23.028;2023-07-09T08:25:09;4.17;;;2.30;;
11344;SDS011;5727;42.600;23.028;2023-07-09T08:27:37;4.20;;;1.93;;
11344;SDS011;5727;42.600;23.028;2023-07-09T08:30:04;3.37;;;1.97;;
11344;SDS011;5727;42.600;23.028;2023-07-09T08:32:32;3.33;;;2.20;;
11344;SDS011;5727;42.600;23.028;2023-07-09T08:34:59;1.97;;;1.60;;
11344;SDS011;5727;42.600;23.028;2023-07-09T08:37:25;3.60;;;1.80;;
11344;SDS011;5727;42.600;23.028;2023-07-09T08:39:52;5.03;;;2.13;;
11344;SDS011;5727;42.600;23.028;2023-07-09T08:42:21;4.60;;;1.80;;
11344;SDS011;5727;42.600;23.028;2023-07-09T08:45:03;1.70;;;1.60;;
11344;SDS011;5727;42.600;23.028;2023-07-09T08:47:43;3.53;;;1.60;;
11344;SDS011;5727;42.600;23.028;2023-07-09T08:50:17;3.93;;;2.37;;
11344;SDS011;5727;42.600;23.028;2023-07-09T08:52:47;3.87;;;2.00;;
11344;SDS011;5727;42.600;23.028;2023-07-09T08:55:16;5.27;;;2.50;;
11344;SDS011;5727;42.600;23.028;2023-07-09T08:57:44;2.63;;;1.83;;
11344;SDS011;5727;42.600;23.028;2023-07-09T09:00:17;3.80;;;1.83;;
11344;SDS011;5727;42.600;23.028;2023-07-09T09:02:49;3.20;;;1.90;;
11344;SDS011;5727;42.600;23.028;2023-07-09T09:05:19;3.83;;;1.87;;
11344;SDS011;5727;42.600;23.028;2023-07-09T09:07:48;3.30;;;1.50;;
11344;SDS011;5727;42.600;23.028;2023-07-09T09:10:21;2.60;;;1.63;;
11344;SDS011;5727;42.600;23.028;2023-07-09T09:12:58;5.50;;;1.57;;
11344;SDS011;5727;42.600;23.028;2023-07-09T09:15:33;2.57;;;1.80;;
11344;SDS011;5727;42.600;23.028;2023-07-09T09:18:09;3.40;;;1.77;;
11344;SDS011;5727;42.600;23.028;2023-07-09T09:20:45;3.10;;;1.50;;
11344;SDS011;5727;42.600;23.028;2023-07-09T09:23:17;2.20;;;1.70;;
11344;SDS011;5727;42.600;23.028;2023-07-09T09:25:46;3.50;;;1.73;;
11344;SDS011;5727;42.600;23.028;2023-07-09T09:28:16;3.63;;;1.80;;
11344;SDS011;5727;42.600;23.028;2023-07-09T09:30:44;2.70;;;2.00;;
11344;SDS011;5727;42.600;23.028;2023-07-09T09:33:11;3.63;;;2.03;;
11344;SDS011;5727;42.600;23.028;2023-07-09T09:35:38;3.57;;;1.90;;
11344;SDS011;5727;42.600;23.028;2023-07-09T09:38:09;3.27;;;1.87;;
11344;SDS011;5727;42.600;23.028;2023-07-09T09:40:37;7.13;;;2.00;;
11344;SDS011;5727;42.600;23.028;2023-07-09T09:43:09;3.70;;;1.90;;
11344;SDS011;5727;42.600;23.028;2023-07-09T09:45:40;2.50;;;1.60;;
11344;SDS011;5727;42.600;23.028;2023-07-09T09:48:13;2.93;;;1.77;;
11344;SDS011;5727;42.600;23.028;2023-07-09T09:50:42;2.87;;;2.03;;
11344;SDS011;5727;42.600;23.028;2023-07-09T09:53:11;3.07;;;1.80;;
11344;SDS011;5727;42.600;23.028;2023-07-09T09:55:44;2.40;;;1.70;;
11344;SDS011;5727;42.600;23.028;2023-07-09T09:58:12;3.47;;;1.37;;
11344;SDS011;5727;42.600;23.028;2023-07-09T10:00:46;6.00;;;2.00;;
11344;SDS011;5727;42.600;23.028;2023-07-09T10:03:16;3.43;;;1.70;;
11344;SDS011;5727;42.600;23.028;2023-07-09T10:05:43;3.90;;;1.63;;
11344;SDS011;5727;42.600;23.028;2023-07-09T10:08:15;3.43;;;1.73;;
11344;SDS011;5727;42.600;23.028;2023-07-09T10:10:46;2.63;;;1.90;;
11344;SDS011;5727;42.600;23.028;2023-07-09T10:13:17;2.10;;;1.73;;
11344;SDS011;5727;42.600;23.028;2023-07-09T10:15:55;4.77;;;2.07;;
11344;SDS011;5727;42.600;23.028;2023-07-09T10:18:35;2.90;;;1.63;;
11344;SDS011;5727;42.600;23.028;2023-07-09T10:21:14;2.57;;;1.70;;
11344;SDS011;5727;42.600;23.028;2023-07-09T10:23:47;3.27;;;1.80;;
11344;SDS011;5727;42.600;23.028;2023-07-09T10:26:26;2.63;;;1.70;;
11344;SDS011;5727;42.600;23.028;2023-07-09T10:29:04;2.47;;;1.60;;
11344;SDS011;5727;42.600;23.028;2023-07-09T10:31:48;3.03;;;2.20;;
11344;SDS011;5727;42.600;23.028;2023-07-09T10:34:25;2.00;;;1.37;;
11344;SDS011;5727;42.600;23.028;2023-07-09T10:37:02;3.77;;;1.83;;
11344;SDS011;5727;42.600;23.028;2023-07-09T10:39:42;2.47;;;1.80;;
11344;SDS011;5727;42.600;23.028;2023-07-09T10:42:20;2.37;;;1.77;;
11344;SDS011;5727;42.600;23.028;2023-07-09T10:44:53;3.80;;;2.17;;
11344;SDS011;5727;42.600;23.028;2023-07-09T10:47:33;5.63;;;2.13;;
11344;SDS011;5727;42.600;23.028;2023-07-09T10:50:05;3.13;;;1.90;;
11344;SDS011;5727;42.600;23.028;2023-07-09T10:52:39;4.23;;;1.97;;
11344;SDS011;5727;42.600;23.028;2023-07-09T10:55:15;2.90;;;2.03;;
11344;SDS011;5727;42.600;23.028;2023-07-09T10:57:48;2.93;;;2.07;;
11344;SDS011;5727;42.600;23.028;2023-07-09T11:00:25;3.50;;;1.70;;
11344;SDS011;5727;42.600;23.028;2023-07-09T11:03:02;2.83;;;1.80;;
11344;SDS011;5727;42.600;23.028;2023-07-09T11:05:33;2.30;;;1.80;;
11344;SDS011;5727;42.600;23.028;2023-07-09T11:08:01;2.83;;;1.83;;
11344;SDS011;5727;42.600;23.028;2023-07-09T11:10:32;5.20;;;1.90;;
11344;SDS011;5727;42.600;23.028;2023-07-09T11:13:02;3.60;;;2.10;;
11344;SDS011;5727;42.600;23.028;2023-07-09T11:15:41;3.80;;;2.07;;
11344;SDS011;5727;42.600;23.028;2023-07-09T11:18:10;3.77;;;1.57;;
11344;SDS011;5727;42.600;23.028;2023-07-09T11:20:43;3.30;;;1.63;;
11344;SDS011;5727;42.600;23.028;2023-07-09T11:23:18;4.83;;;2.00;;
11344;SDS011;5727;42.600;23.028;2023-07-09T11:25:47;2.97;;;1.90;;
11344;SDS011;5727;42.600;23.028;2023-07-09T11:28:15;2.23;;;1.70;;
11344;SDS011;5727;42.600;23.028;2023-07-09T11:30:46;3.30;;;1.67;;
11344;SDS011;5727;42.600;23.028;2023-07-09T11:33:17;2.30;;;1.70;;
11344;SDS011;5727;42.600;23.028;2023-07-09T11:35:47;1.93;;;1.57;;
11344;SDS011;5727;42.600;23.028;2023-07-09T11:38:16;4.30;;;1.77;;
11344;SDS011;5727;42.600;23.028;2023-07-09T11:40:48;4.00;;;1.43;;
11344;SDS011;5727;42.600;23.028;2023-07-09T11:43:27;3.08;;;1.75;;
11344;SDS011;5727;42.600;23.028;2023-07-09T11:46:10;2.40;;;1.45;;
11344;SDS011;5727;42.600;23.028;2023-07-09T11:48:41;3.65;;;1.60;;
11344;SDS011;5727;42.600;23.028;2023-07-09T11:51:10;3.55;;;1.60;;
11344;SDS011;5727;42.600;23.028;2023-07-09T11:53:41;3.58;;;1.70;;
11344;SDS011;5727;42.600;23.028;2023-07-09T11:56:12;1.83;;;1.02;;
11344;SDS011;5727;42.600;23.028;2023-07-09T11:58:47;2.83;;;1.33;;
11344;SDS011;5727;42.600;23.028;2023-07-09T12:01:16;2.50;;;1.30;;
11344;SDS011;5727;42.600;23.028;2023-07-09T12:03:45;2.33;;;1.30;;
11344;SDS011;5727;42.600;23.028;2023-07-09T12:06:16;3.15;;;0.90;;
11344;SDS011;5727;42.600;23.028;2023-07-09T12:08:46;3.38;;;1.00;;
11344;SDS011;5727;42.600;23.028;2023-07-09T12:11:19;3.40;;;1.55;;
11344;SDS011;5727;42.600;23.028;2023-07-09T12:13:50;2.10;;;1.30;;
11344;SDS011;5727;42.600;23.028;2023-07-09T12:16:20;3.40;;;1.20;;
11344;SDS011;5727;42.600;23.028;2023-07-09T12:18:48;2.03;;;1.23;;
11344;SDS011;5727;42.600;23.028;2023-07-09T12:21:16;4.07;;;1.23;;
11344;SDS011;5727;42.600;23.028;2023-07-09T12:23:44;2.78;;;1.45;;
11344;SDS011;5727;42.600;23.028;2023-07-09T12:26:11;5.20;;;1.20;;
11344;SDS011;5727;42.600;23.028;2023-07-09T12:28:40;1.88;;;1.38;;
11344;SDS011;5727;42.600;23.028;2023-07-09T12:31:10;2.13;;;1.05;;
11344;SDS011;5727;42.600;23.028;2023-07-09T12:33:46;1.52;;;0.85;;
11344;SDS011;5727;42.600;23.028;2023-07-09T12:36:14;1.95;;;1.10;;
11344;SDS011;5727;42.600;23.028;2023-07-09T12:38:44;2.10;;;1.17;;
11344;SDS011;5727;42.600;23.028;2023-07-09T12:41:17;1.95;;;1.40;;
11344;SDS011;5727;42.600;23.028;2023-07-09T12:43:46;2.08;;;1.50;;
11344;SDS011;5727;42.600;23.028;2023-07-09T12:46:14;2.95;;;1.45;;
11344;SDS011;5727;42.600;23.028;2023-07-09T12:48:41;4.65;;;1.20;;
11344;SDS011;5727;42.600;23.028;2023-07-09T12:51:09;2.38;;;1.20;;
11344;SDS011;5727;42.600;23.028;2023-07-09T12:53:36;1.70;;;0.90;;
11344;SDS011;5727;42.600;23.028;2023-07-09T12:56:14;2.65;;;1.45;;
11344;SDS011;5727;42.600;23.028;2023-07-09T12:58:42;2.05;;;0.95;;
11344;SDS011;5727;42.600;23.028;2023-07-09T13:01:13;1.95;;;0.88;;
11344;SDS011;5727;42.600;23.028;2023-07-09T13:03:42;4.28;;;1.45;;
11344;SDS011;5727;42.600;23.028;2023-07-09T13:06:26;2.13;;;1.00;;
11344;SDS011;5727;42.600;23.028;2023-07-09T13:08:56;4.22;;;1.30;;
11344;SDS011;5727;42.600;23.028;2023-07-09T13:11:25;4.25;;;1.33;;
11344;SDS011;5727;42.600;23.028;2023-07-09T13:13:59;2.45;;;0.80;;
11344;SDS011;5727;42.600;23.028;2023-07-09T13:16:29;2.00;;;1.15;;
11344;SDS011;5727;42.600;23.028;2023-07-09T13:18:56;2.08;;;1.10;;
11344;SDS011;5727;42.600;23.028;2023-07-09T13:21:22;1.95;;;1.13;;
11344;SDS011;5727;42.600;23.028;2023-07-09T13:23:49;3.08;;;1.30;;
11344;SDS011;5727;42.600;23.028;2023-07-09T13:26:19;9.73;;;2.05;;
11344;SDS011;5727;42.600;23.028;2023-07-09T13:28:47;1.50;;;1.00;;
11344;SDS011;5727;42.600;23.028;2023-07-09T13:31:16;2.22;;;1.40;;
11344;SDS011;5727;42.600;23.028;2023-07-09T13:33:44;3.03;;;1.10;;
11344;SDS011;5727;42.600;23.028;2023-07-09T13:36:18;2.40;;;1.20;;
11344;SDS011;5727;42.600;23.028;2023-07-09T13:38:45;1.90;;;1.40;;
11344;SDS011;5727;42.600;23.028;2023-07-09T13:41:13;2.20;;;1.30;;
11344;SDS011;5727;42.600;23.028;2023-07-09T13:43:42;3.28;;;0.90;;
11344;SDS011;5727;42.600;23.028;2023-07-09T13:46:12;2.10;;;1.13;;
11344;SDS011;5727;42.600;23.028;2023-07-09T13:48:40;1.92;;;1.10;;
11344;SDS011;5727;42.600;23.028;2023-07-09T13:51:14;3.50;;;1.30;;
11344;SDS011;5727;42.600;23.028;2023-07-09T13:53:43;5.10;;;1.58;;
11344;SDS011;5727;42.600;23.028;2023-07-09T13:56:10;3.40;;;1.30;;
11344;SDS011;5727;42.600;23.028;2023-07-09T13:58:37;2.33;;;1.50;;
11344;SDS011;5727;42.600;23.028;2023-07-09T14:03:50;1.65;;;1.25;;
11344;SDS011;5727;42.600;23.028;2023-07-09T14:06:18;2.75;;;1.10;;
11344;SDS011;5727;42.600;23.028;2023-07-09T14:08:45;2.55;;;1.20;;
11344;SDS011;5727;42.600;23.028;2023-07-09T14:11:12;2.13;;;1.10;;
11344;SDS011;5727;42.600;23.028;2023-07-09T14:13:40;3.97;;;1.38;;
11344;SDS011;5727;42.600;23.028;2023-07-09T14:16:08;2.55;;;1.17;;
11344;SDS011;5727;42.600;23.028;2023-07-09T14:18:38;2.58;;;1.65;;
11344;SDS011;5727;42.600;23.028;2023-07-09T14:21:06;3.08;;;1.42;;
11344;SDS011;5727;42.600;23.028;2023-07-09T14:23:38;7.57;;;2.15;;
11344;SDS011;5727;42.600;23.028;2023-07-09T14:26:05;2.88;;;1.15;;
11344;SDS011;5727;42.600;23.028;2023-07-09T14:28:32;2.95;;;1.42;;
11344;SDS011;5727;42.600;23.028;2023-07-09T14:30:59;2.30;;;1.48;;
11344;SDS011;5727;42.600;23.028;2023-07-09T14:33:27;3.13;;;1.30;;
11344;SDS011;5727;42.600;23.028;2023-07-09T14:35:55;1.67;;;1.20;;
11344;SDS011;5727;42.600;23.028;2023-07-09T14:38:22;2.35;;;1.10;;
11344;SDS011;5727;42.600;23.028;2023-07-09T14:40:51;2.28;;;1.27;;
11344;SDS011;5727;42.600;23.028;2023-07-09T14:43:20;3.20;;;1.42;;
11344;SDS011;5727;42.600;23.028;2023-07-09T14:45:47;2.67;;;1.55;;
11344;SDS011;5727;42.600;23.028;2023-07-09T14:48:14;2.80;;;1.05;;
11344;SDS011;5727;42.600;23.028;2023-07-09T14:50:43;2.88;;;0.80;;
11344;SDS011;5727;42.600;23.028;2023-07-09T14:53:13;3.08;;;1.30;;
11344;SDS011;5727;42.600;23.028;2023-07-09T14:55:41;1.52;;;0.82;;
11344;SDS011;5727;42.600;23.028;2023-07-09T14:58:14;2.95;;;1.30;;
11344;SDS011;5727;42.600;23.028;2023-07-09T15:00:42;2.40;;;1.33;;
11344;SDS011;5727;42.600;23.028;2023-07-09T15:03:11;2.60;;;1.30;;
11344;SDS011;5727;42.600;23.028;2023-07-09T15:05:44;3.15;;;1.35;;